Time;durP1;ratioP1;P1;durP2;ratioP2;P2;SDS_P1;SDS_P2;PMS_P1;PMS_P2;Temp;Humidity;BMP_temperature;BMP_pressure;BME280_temperature;BME280_humidity;BME280_pressure;Samples;Min_cycle;Max_cycle;Signal;HPM_P1;HPM_P2
2021/03/27 00:02:23;;;;;;;10.13;7.97;;;5.30;99.90;;;;;;4847453;29;20837;-80
2021/03/27 00:05:17;;;;;;;9.33;8.40;;;5.20;99.90;;;;;;4822838;29;20414;-81
2021/03/27 00:08:22;;;;;;;10.55;8.30;;;5.10;99.90;;;;;;4831469;29;20503;-80
2021/03/27 00:10:55;;;;;;;10.23;8.05;;;4.90;99.90;;;;;;4790839;29;20417;-81
2021/03/27 00:13:28;;;;;;;11.20;7.97;;;4.90;99.90;;;;;;4806496;29;20432;-80
2021/03/27 00:16:20;;;;;;;11.10;8.82;;;4.90;99.90;;;;;;4834351;29;20497;-80
2021/03/27 00:18:59;;;;;;;11.60;8.40;;;4.90;99.90;;;;;;4859202;29;20421;-80
2021/03/27 00:21:32;;;;;;;10.15;8.48;;;4.80;99.90;;;;;;4888606;29;20421;-81
2021/03/27 00:24:19;;;;;;;11.50;8.90;;;4.80;99.90;;;;;;4846206;29;20460;-81
2021/03/27 00:27:00;;;;;;;10.35;8.32;;;4.80;99.90;;;;;;4877033;29;20413;-81
2021/03/27 00:29:29;;;;;;;11.60;8.30;;;4.80;99.90;;;;;;4861379;29;20770;-81
2021/03/27 00:31:57;;;;;;;10.73;8.63;;;4.90;99.90;;;;;;4845299;29;20412;-83
2021/03/27 00:34:31;;;;;;;12.00;8.13;;;4.80;99.90;;;;;;4840377;29;20408;-81
2021/03/27 00:37:01;;;;;;;10.07;7.90;;;4.80;99.90;;;;;;4860532;29;20929;-80
2021/03/27 00:39:47;;;;;;;9.65;8.30;;;4.80;99.90;;;;;;4830240;29;20423;-80
2021/03/27 00:42:18;;;;;;;9.13;7.70;;;4.80;99.90;;;;;;4877485;29;20482;-81
2021/03/27 00:45:13;;;;;;;8.27;7.47;;;4.70;99.90;;;;;;4846350;29;20424;-81
2021/03/27 00:47:40;;;;;;;9.18;7.97;;;4.70;99.90;;;;;;4875035;29;20408;-81
2021/03/27 00:50:22;;;;;;;14.00;8.88;;;4.70;99.90;;;;;;4830492;29;20819;-81
2021/03/27 00:52:51;;;;;;;8.93;7.90;;;4.70;99.90;;;;;;4830881;29;20431;-82
2021/03/27 00:55:41;;;;;;;11.50;8.65;;;4.70;99.90;;;;;;4829312;29;20408;-80
2021/03/27 00:58:12;;;;;;;10.00;8.43;;;4.70;99.90;;;;;;4843720;29;20412;-81
2021/03/27 01:00:45;;;;;;;11.95;8.77;;;4.60;99.90;;;;;;4860813;29;20421;-82
2021/03/27 01:03:40;;;;;;;13.50;8.93;;;4.60;99.90;;;;;;4862801;29;20484;-80
2021/03/27 01:06:09;;;;;;;9.48;8.13;;;4.60;99.90;;;;;;4862717;29;20400;-81
2021/03/27 01:08:53;;;;;;;11.88;8.70;;;4.60;99.90;;;;;;4864044;29;20774;-81
2021/03/27 01:11:45;;;;;;;11.23;9.07;;;4.50;99.90;;;;;;4863698;29;20905;-81
2021/03/27 01:14:20;;;;;;;10.07;8.60;;;4.40;99.90;;;;;;4862155;29;20537;-81
2021/03/27 01:16:49;;;;;;;12.32;9.18;;;4.50;99.90;;;;;;4844779;29;20499;-81
2021/03/27 01:19:26;;;;;;;12.57;8.55;;;4.40;99.90;;;;;;4861190;29;20436;-80
2021/03/27 01:21:53;;;;;;;12.95;9.45;;;4.40;99.90;;;;;;4861005;29;20425;-81
2021/03/27 01:24:19;;;;;;;13.27;9.30;;;4.40;99.90;;;;;;4860356;29;21031;-83
2021/03/27 01:26:49;;;;;;;10.73;8.53;;;4.50;99.90;;;;;;4851132;29;20405;-82
2021/03/27 01:29:56;;;;;;;14.07;9.43;;;4.40;99.90;;;;;;4839653;29;20416;-82
2021/03/27 01:32:28;;;;;;;10.18;8.50;;;4.30;99.90;;;;;;4842240;29;20413;-80
2021/03/27 01:35:19;;;;;;;11.45;9.13;;;4.30;99.90;;;;;;4867381;29;20410;-81
2021/03/27 01:37:54;;;;;;;11.68;9.23;;;4.30;99.90;;;;;;4861067;29;20902;-81
2021/03/27 01:40:29;;;;;;;11.85;9.48;;;4.20;99.90;;;;;;4862345;29;20432;-80
2021/03/27 01:43:06;;;;;;;11.70;9.07;;;4.10;99.90;;;;;;4846270;29;20894;-81
2021/03/27 01:45:47;;;;;;;14.75;8.90;;;4.20;99.90;;;;;;4861648;29;20419;-81
2021/03/27 01:49:03;;;;;;;10.75;9.40;;;4.10;99.90;;;;;;4875270;29;20472;-79
2021/03/27 01:51:50;;;;;;;11.43;9.18;;;4.10;99.90;;;;;;4822733;29;20416;-80
2021/03/27 01:54:22;;;;;;;12.43;8.77;;;4.00;99.90;;;;;;4828650;29;20409;-81
2021/03/27 01:56:56;;;;;;;12.83;9.37;;;4.00;99.90;;;;;;4846664;29;20481;-81
2021/03/27 01:59:28;;;;;;;10.68;8.85;;;4.00;99.90;;;;;;4877381;29;20412;-81
2021/03/27 02:01:56;;;;;;;11.85;8.70;;;4.00;99.90;;;;;;4860376;29;20496;-81
2021/03/27 02:04:46;;;;;;;12.45;8.90;;;4.00;99.90;;;;;;4847183;29;20435;-81
2021/03/27 02:07:18;;;;;;;11.53;9.03;;;4.00;99.90;;;;;;4847343;29;20405;-81
2021/03/27 02:10:05;;;;;;;11.43;8.98;;;4.00;99.90;;;;;;4861219;29;20421;-81
2021/03/27 02:12:54;;;;;;;11.80;8.70;;;4.00;99.90;;;;;;4862960;29;20906;-83
2021/03/27 02:15:37;;;;;;;11.25;8.95;;;4.00;99.90;;;;;;4860186;29;20453;-81
2021/03/27 02:18:09;;;;;;;9.88;8.65;;;3.90;99.90;;;;;;4861151;29;20898;-80
2021/03/27 02:20:49;;;;;;;11.13;8.02;;;4.00;99.90;;;;;;4860367;29;20790;-80
2021/03/27 02:24:05;;;;;;;9.32;8.23;;;3.70;99.90;;;;;;4860286;29;20420;-80
2021/03/27 02:27:03;;;;;;;9.97;8.10;;;3.80;99.90;;;;;;4867366;29;20397;-78
2021/03/27 02:29:44;;;;;;;9.40;8.40;;;3.80;99.90;;;;;;4844290;29;20417;-81
2021/03/27 02:32:17;;;;;;;11.07;8.93;;;3.80;99.90;;;;;;4874240;29;20415;-81
2021/03/27 02:34:48;;;;;;;10.70;8.27;;;3.80;99.90;;;;;;4845190;29;20418;-80
2021/03/27 02:37:27;;;;;;;12.35;8.18;;;3.80;99.90;;;;;;4844770;29;20831;-81
2021/03/27 02:39:57;;;;;;;13.27;9.00;;;3.80;99.90;;;;;;4845168;29;20413;-80
2021/03/27 02:42:38;;;;;;;10.95;8.15;;;3.80;99.90;;;;;;4859484;29;20905;-80
2021/03/27 02:45:07;;;;;;;12.43;8.00;;;3.80;99.90;;;;;;4859995;29;20401;-82
2021/03/27 02:47:54;;;;;;;10.80;8.27;;;3.80;99.90;;;;;;4859513;29;20426;-81
2021/03/27 02:50:23;;;;;;;9.73;8.10;;;3.80;99.90;;;;;;4845300;29;20405;-81
2021/03/27 02:53:11;;;;;;;12.07;8.80;;;3.80;99.90;;;;;;4877302;29;20431;-81
2021/03/27 02:56:07;;;;;;;10.95;7.85;;;3.80;99.90;;;;;;4847639;29;21008;-81
2021/03/27 02:58:54;;;;;;;11.95;9.00;;;3.70;99.90;;;;;;4869154;23;20408;-78
2021/03/27 03:01:41;;;;;;;12.10;8.40;;;3.60;99.90;;;;;;4859905;29;20510;-77
2021/03/27 03:04:36;;;;;;;13.20;8.48;;;3.50;99.90;;;;;;4854723;29;20414;-78
2021/03/27 03:07:28;;;;;;;10.32;8.05;;;3.40;99.90;;;;;;4850443;29;21090;-78
2021/03/27 03:10:20;;;;;;;9.88;8.00;;;3.40;99.90;;;;;;4838710;29;20412;-78
2021/03/27 03:13:07;;;;;;;11.45;8.40;;;3.40;99.90;;;;;;4863539;29;20408;-78
2021/03/27 03:15:49;;;;;;;10.73;8.35;;;3.40;99.90;;;;;;4872363;29;20822;-78
2021/03/27 03:18:36;;;;;;;9.15;8.15;;;3.40;99.90;;;;;;4873578;29;20793;-78
2021/03/27 03:21:18;;;;;;;11.43;8.43;;;3.40;99.90;;;;;;4873426;29;20416;-80
2021/03/27 03:24:05;;;;;;;11.63;8.20;;;3.30;99.90;;;;;;4876465;29;20409;-79
2021/03/27 03:26:35;;;;;;;10.20;8.25;;;3.30;99.90;;;;;;4868616;29;20493;-78
2021/03/27 03:29:20;;;;;;;9.37;8.07;;;3.30;99.90;;;;;;4873317;29;20437;-78
2021/03/27 03:32:19;;;;;;;10.52;7.68;;;3.30;99.90;;;;;;4871757;29;20414;-78
2021/03/27 03:35:03;;;;;;;9.63;8.32;;;3.30;99.90;;;;;;4887954;29;20514;-77
2021/03/27 03:38:06;;;;;;;11.88;8.70;;;3.20;99.90;;;;;;4869649;29;21550;-78
2021/03/27 03:40:59;;;;;;;13.25;8.27;;;3.20;99.90;;;;;;4873427;29;20557;-79
2021/03/27 03:44:00;;;;;;;9.70;7.73;;;3.10;99.90;;;;;;4873360;29;20432;-78
2021/03/27 03:46:30;;;;;;;9.60;7.15;;;3.10;99.90;;;;;;4870007;29;20413;-78
2021/03/27 03:49:11;;;;;;;10.07;8.18;;;3.00;99.90;;;;;;4861276;29;20537;-79
2021/03/27 03:51:45;;;;;;;9.97;8.37;;;3.10;99.90;;;;;;4890866;29;20416;-78
2021/03/27 03:54:23;;;;;;;10.07;7.57;;;3.10;99.90;;;;;;4868508;29;20989;-79
2021/03/27 03:57:00;;;;;;;11.13;7.70;;;3.10;99.90;;;;;;4874928;29;20503;-78
2021/03/27 03:59:38;;;;;;;9.98;7.65;;;3.10;99.90;;;;;;4875981;29;20893;-79
2021/03/27 04:02:28;;;;;;;9.65;7.50;;;3.20;99.90;;;;;;4890020;29;20425;-78
2021/03/27 04:04:57;;;;;;;9.35;7.43;;;3.20;99.90;;;;;;4865502;29;21001;-78
2021/03/27 04:07:44;;;;;;;8.85;7.30;;;3.20;99.90;;;;;;4871991;29;20417;-78
2021/03/27 04:10:13;;;;;;;9.77;8.48;;;3.30;99.90;;;;;;4859335;29;20420;-79
2021/03/27 04:12:44;;;;;;;9.27;7.18;;;3.30;99.90;;;;;;4875567;29;20429;-78
2021/03/27 04:15:32;;;;;;;8.35;6.80;;;3.40;99.90;;;;;;4868439;29;20913;-78
2021/03/27 04:18:27;;;;;;;10.65;7.60;;;3.40;99.90;;;;;;4838980;29;20421;-79
2021/03/27 04:21:00;;;;;;;10.48;7.65;;;3.50;99.90;;;;;;4871646;29;20422;-78
2021/03/27 04:23:32;;;;;;;10.95;8.07;;;3.70;99.90;;;;;;4890432;29;20420;-78
2021/03/27 04:25:57;;;;;;;9.10;7.32;;;3.80;99.90;;;;;;4875143;29;20821;-78
2021/03/27 04:28:52;;;;;;;9.63;8.13;;;3.90;99.90;;;;;;4871503;29;20428;-77
2021/03/27 04:31:24;;;;;;;13.90;8.20;;;4.00;99.90;;;;;;4872278;29;20471;-78
2021/03/27 04:34:08;;;;;;;9.20;7.83;;;4.10;99.90;;;;;;4858040;29;20424;-78
2021/03/27 04:36:40;;;;;;;9.77;7.60;;;4.10;99.90;;;;;;4873276;29;20421;-79
2021/03/27 04:39:15;;;;;;;8.73;7.40;;;4.10;99.90;;;;;;4858400;29;20429;-78
2021/03/27 04:41:56;;;;;;;12.23;9.00;;;4.20;99.90;;;;;;4873945;29;20425;-78
2021/03/27 04:44:26;;;;;;;11.00;8.45;;;4.30;99.90;;;;;;4866444;29;20414;-78
2021/03/27 04:46:58;;;;;;;12.38;8.30;;;4.40;99.90;;;;;;4885748;29;20472;-78
2021/03/27 04:49:40;;;;;;;10.10;7.75;;;4.50;99.90;;;;;;4872302;29;21488;-79
2021/03/27 04:52:16;;;;;;;10.70;8.07;;;4.60;99.90;;;;;;4876424;29;20421;-78
2021/03/27 04:54:54;;;;;;;10.38;7.47;;;4.60;99.90;;;;;;4866575;29;20494;-79
2021/03/27 04:57:54;;;;;;;9.93;8.13;;;4.70;99.90;;;;;;4828286;29;20499;-79
2021/03/27 05:00:27;;;;;;;9.18;7.55;;;4.70;99.90;;;;;;4856406;29;20618;-78
2021/03/27 05:03:04;;;;;;;10.90;8.00;;;4.80;99.90;;;;;;4840084;29;20758;-78
2021/03/27 05:05:59;;;;;;;10.80;7.65;;;4.90;99.90;;;;;;4869786;29;20409;-77
2021/03/27 05:08:58;;;;;;;11.63;7.85;;;4.90;99.90;;;;;;4870648;29;20422;-81
2021/03/27 05:11:53;;;;;;;8.75;7.00;;;4.90;99.90;;;;;;4868589;29;20818;-77
2021/03/27 05:14:22;;;;;;;8.40;7.05;;;4.90;99.90;;;;;;4876786;29;20453;-78
2021/03/27 05:17:24;;;;;;;10.18;7.65;;;4.90;99.90;;;;;;4871970;29;20948;-78
2021/03/27 05:19:56;;;;;;;10.32;8.02;;;4.90;99.90;;;;;;4873206;29;20936;-79
2021/03/27 05:22:59;;;;;;;10.60;8.13;;;5.00;99.90;;;;;;4887737;29;20440;-77
2021/03/27 05:25:38;;;;;;;8.27;7.03;;;5.10;99.90;;;;;;4871918;29;20408;-77
2021/03/27 05:28:32;;;;;;;9.82;7.15;;;5.10;99.90;;;;;;4870354;29;20409;-77
2021/03/27 05:31:26;;;;;;;8.65;7.10;;;5.10;99.90;;;;;;4876884;29;20418;-78
2021/03/27 05:34:00;;;;;;;10.30;7.47;;;5.20;99.90;;;;;;4880909;29;20424;-78
2021/03/27 05:36:34;;;;;;;8.68;7.53;;;5.20;99.90;;;;;;4854965;29;20438;-78
2021/03/27 05:39:04;;;;;;;9.43;7.25;;;5.20;99.90;;;;;;4837919;29;21059;-78
2021/03/27 05:41:47;;;;;;;10.50;8.27;;;5.20;99.90;;;;;;4819358;29;20433;-78
2021/03/27 05:44:44;;;;;;;11.45;7.90;;;5.30;99.90;;;;;;4823911;29;20868;-78
2021/03/27 05:47:46;;;;;;;9.93;7.75;;;5.40;99.90;;;;;;4803474;29;20797;-78
2021/03/27 05:50:15;;;;;;;8.95;6.95;;;5.50;99.90;;;;;;4877196;29;20405;-80
2021/03/27 05:53:15;;;;;;;8.70;6.90;;;5.50;99.90;;;;;;4868337;29;20429;-78
2021/03/27 05:55:59;;;;;;;11.00;7.72;;;5.60;99.90;;;;;;4861686;29;20415;-78
2021/03/27 05:58:49;;;;;;;9.13;7.40;;;5.60;99.90;;;;;;4876199;29;20429;-78
2021/03/27 06:01:43;;;;;;;9.10;6.95;;;5.70;99.90;;;;;;4889522;29;20459;-79
2021/03/27 06:05:05;;;;;;;7.85;7.03;;;5.80;99.90;;;;;;4862645;29;21090;-78
2021/03/27 06:07:51;;;;;;;9.48;7.32;;;5.90;99.90;;;;;;4763624;29;20429;-79
2021/03/27 06:10:21;;;;;;;8.07;6.70;;;6.10;99.90;;;;;;4862485;29;20497;-78
2021/03/27 06:12:57;;;;;;;11.60;7.10;;;6.30;99.90;;;;;;4872315;29;20421;-81
2021/03/27 06:15:35;;;;;;;8.15;7.03;;;6.50;99.90;;;;;;4855755;29;20408;-80
2021/03/27 06:18:27;;;;;;;9.10;6.63;;;6.60;99.90;;;;;;4871343;29;20418;-77
2021/03/27 06:21:22;;;;;;;9.35;6.78;;;6.80;99.90;;;;;;4877743;29;20420;-78
2021/03/27 06:24:03;;;;;;;9.38;7.07;;;7.00;99.90;;;;;;4886150;29;21090;-78
2021/03/27 06:26:57;;;;;;;10.52;7.75;;;7.20;99.90;;;;;;4874160;29;20405;-78
2021/03/27 06:29:48;;;;;;;6.95;6.10;;;7.50;99.90;;;;;;4859195;29;20512;-78
2021/03/27 06:32:38;;;;;;;8.98;6.72;;;7.80;99.90;;;;;;4855518;29;20417;-79
2021/03/27 06:35:30;;;;;;;7.35;6.53;;;8.10;99.90;;;;;;4871453;29;20425;-78
2021/03/27 06:38:25;;;;;;;5.80;5.25;;;8.40;99.90;;;;;;4866703;29;20420;-79
2021/03/27 06:41:15;;;;;;;7.18;5.38;;;8.70;99.90;;;;;;4865567;29;20485;-78
2021/03/27 06:43:48;;;;;;;8.70;5.68;;;8.90;99.90;;;;;;4882864;29;20409;-79
2021/03/27 06:46:50;;;;;;;7.40;5.20;;;9.10;99.90;;;;;;4870349;29;21292;-78
2021/03/27 06:49:31;;;;;;;6.05;5.10;;;9.20;99.90;;;;;;4872679;29;20413;-78
2021/03/27 06:52:33;;;;;;;7.45;4.97;;;9.40;99.90;;;;;;4875532;29;20431;-79
2021/03/27 06:55:11;;;;;;;6.70;5.18;;;9.60;99.90;;;;;;4874118;29;20527;-78
2021/03/27 06:58:14;;;;;;;5.55;4.95;;;9.80;99.90;;;;;;4854297;29;20423;-79
2021/03/27 07:01:10;;;;;;;5.40;4.82;;;10.00;99.90;;;;;;4866858;29;20432;-78
2021/03/27 07:03:45;;;;;;;6.10;4.65;;;10.10;99.90;;;;;;4872843;29;20460;-78
2021/03/27 07:06:32;;;;;;;5.82;5.10;;;10.30;99.90;;;;;;4888843;29;20409;-80
2021/03/27 07:09:03;;;;;;;5.82;4.78;;;10.40;99.90;;;;;;4870036;29;20414;-78
2021/03/27 07:11:34;;;;;;;6.53;4.43;;;10.60;99.90;;;;;;4858474;29;20456;-82
2021/03/27 07:14:38;;;;;;;7.05;4.53;;;10.70;99.90;;;;;;4857038;29;20817;-79
2021/03/27 07:17:14;;;;;;;6.07;4.30;;;11.00;99.90;;;;;;4873322;29;20806;-79
2021/03/27 07:20:05;;;;;;;6.40;4.20;;;11.20;99.90;;;;;;4889192;29;20441;-78
2021/03/27 07:22:50;;;;;;;4.90;3.33;;;11.50;99.90;;;;;;4877659;29;20416;-81
2021/03/27 07:25:42;;;;;;;5.13;4.13;;;11.80;99.90;;;;;;4863682;29;21123;-81
2021/03/27 07:28:20;;;;;;;6.07;3.65;;;11.90;99.90;;;;;;4873205;29;20411;-80
2021/03/27 07:31:20;;;;;;;5.07;4.10;;;12.00;99.90;;;;;;4877771;29;20502;-83
2021/03/27 07:34:09;;;;;;;3.90;3.55;;;12.10;99.90;;;;;;4879325;29;20585;-80
2021/03/27 07:37:06;;;;;;;5.90;3.97;;;12.20;99.90;;;;;;4858872;29;20418;-80
2021/03/27 07:39:40;;;;;;;5.40;3.88;;;12.30;99.90;;;;;;4892373;29;20410;-78
2021/03/27 07:42:27;;;;;;;3.83;3.50;;;12.40;99.90;;;;;;4871982;29;20859;-79
2021/03/27 07:45:05;;;;;;;7.90;4.07;;;12.60;99.90;;;;;;4870310;29;20452;-79
2021/03/27 07:47:41;;;;;;;5.53;4.70;;;12.70;99.90;;;;;;4879152;29;20926;-78
2021/03/27 07:50:36;;;;;;;6.35;3.95;;;12.90;99.90;;;;;;4860079;29;20404;-81
2021/03/27 07:53:04;;;;;;;4.75;3.50;;;13.10;99.90;;;;;;4875140;29;20413;-79
2021/03/27 07:55:52;;;;;;;6.60;3.17;;;13.30;99.90;;;;;;4865089;29;20415;-79
2021/03/27 07:58:54;;;;;;;3.78;3.47;;;13.50;99.90;;;;;;4884710;29;20432;-79
2021/03/27 08:01:29;;;;;;;5.55;4.13;;;13.50;99.90;;;;;;4858334;29;20421;-79
2021/03/27 08:04:31;;;;;;;4.20;3.80;;;13.40;99.90;;;;;;4858735;29;20412;-80
2021/03/27 08:07:26;;;;;;;4.07;3.70;;;13.40;99.90;;;;;;4874844;29;21091;-82
2021/03/27 08:10:18;;;;;;;4.93;3.85;;;13.40;99.90;;;;;;4873626;29;20769;-81
2021/03/27 08:12:59;;;;;;;3.60;3.22;;;13.50;99.90;;;;;;4894187;29;20485;-78
2021/03/27 08:15:33;;;;;;;3.38;3.08;;;13.50;99.90;;;;;;4875592;29;20848;-80
2021/03/27 08:18:35;;;;;;;3.95;3.50;;;13.40;99.90;;;;;;4863607;29;20465;-80
2021/03/27 08:21:19;;;;;;;3.28;2.97;;;13.40;99.90;;;;;;4871195;29;20423;-78
2021/03/27 08:24:16;;;;;;;4.03;3.50;;;13.30;99.90;;;;;;4878455;29;20828;-80
2021/03/27 08:26:47;;;;;;;3.50;2.95;;;13.10;99.90;;;;;;4860863;29;20417;-80
2021/03/27 08:29:50;;;;;;;4.05;3.65;;;12.70;99.90;;;;;;4876741;29;20409;-78
2021/03/27 08:32:36;;;;;;;4.37;3.60;;;12.20;99.90;;;;;;4876007;29;20423;-84
2021/03/27 08:35:20;;;;;;;3.80;3.47;;;12.00;99.90;;;;;;4883179;29;20415;-77
2021/03/27 08:38:12;;;;;;;4.13;3.72;;;11.80;99.90;;;;;;4887770;29;20993;-83
2021/03/27 08:40:43;;;;;;;4.90;3.72;;;11.50;99.90;;;;;;4888773;29;20428;-81
2021/03/27 08:43:19;;;;;;;5.28;3.78;;;11.20;99.90;;;;;;4877149;29;20415;-78
2021/03/27 08:46:12;;;;;;;4.55;4.15;;;11.00;99.90;;;;;;4873968;29;20410;-77
2021/03/27 08:48:50;;;;;;;6.20;3.95;;;10.80;99.90;;;;;;4875648;29;20469;-82
2021/03/27 08:51:21;;;;;;;4.10;3.80;;;10.60;99.90;;;;;;4875823;29;20881;-77
2021/03/27 08:54:08;;;;;;;4.07;3.67;;;10.40;99.90;;;;;;4856090;29;20434;-79
2021/03/27 08:56:55;;;;;;;6.72;4.82;;;10.30;99.90;;;;;;4886479;29;20440;-78
2021/03/27 08:59:54;;;;;;;4.57;4.17;;;10.10;99.90;;;;;;4878199;29;20419;-81
2021/03/27 09:02:43;;;;;;;4.63;4.22;;;10.10;99.90;;;;;;4856755;29;20495;-78
2021/03/27 09:05:32;;;;;;;3.17;2.97;;;9.90;99.90;;;;;;4876324;29;20416;-80
2021/03/27 09:08:13;;;;;;;2.85;2.65;;;9.70;99.90;;;;;;4873006;29;20422;-79
2021/03/27 09:10:57;;;;;;;2.40;2.20;;;9.40;99.90;;;;;;4877701;29;20416;-84
2021/03/27 09:13:44;;;;;;;2.47;2.28;;;9.30;99.90;;;;;;4892158;29;20572;-79
2021/03/27 09:16:48;;;;;;;3.30;2.28;;;9.20;99.90;;;;;;4861450;29;20436;-80
2021/03/27 09:19:35;;;;;;;2.20;2.00;;;9.10;99.90;;;;;;4857965;29;20433;-80
2021/03/27 09:22:19;;;;;;;2.97;2.30;;;9.10;99.90;;;;;;4890189;29;21225;-79
2021/03/27 09:24:53;;;;;;;2.95;2.50;;;8.90;99.90;;;;;;4875381;29;20466;-78
2021/03/27 09:27:48;;;;;;;2.60;2.40;;;8.80;99.90;;;;;;4889700;29;20504;-78
2021/03/27 09:30:51;;;;;;;2.40;2.30;;;8.70;99.90;;;;;;4839584;29;20488;-78
2021/03/27 09:33:28;;;;;;;3.28;2.53;;;8.70;99.90;;;;;;4874348;29;20441;-78
2021/03/27 09:36:13;;;;;;;3.50;2.73;;;8.70;99.90;;;;;;4861185;29;20838;-81
2021/03/27 09:38:44;;;;;;;2.50;2.30;;;8.60;99.90;;;;;;4877397;29;20445;-86
2021/03/27 09:41:22;;;;;;;2.40;2.20;;;8.50;99.90;;;;;;4858507;29;20430;-83
2021/03/27 09:44:08;;;;;;;2.53;2.30;;;8.40;99.90;;;;;;4851872;29;20902;-80
2021/03/27 09:46:57;;;;;;;2.33;2.13;;;8.40;99.90;;;;;;4862850;29;20469;-81
2021/03/27 09:49:54;;;;;;;2.20;1.80;;;8.40;99.90;;;;;;4872857;29;20429;-80
2021/03/27 09:52:41;;;;;;;1.75;1.65;;;8.20;99.90;;;;;;4876182;29;20415;-81
2021/03/27 09:55:21;;;;;;;2.05;1.73;;;8.20;99.90;;;;;;4870232;29;20409;-81
2021/03/27 09:57:55;;;;;;;1.87;1.70;;;8.20;99.90;;;;;;4865218;29;20946;-82
2021/03/27 10:00:43;;;;;;;2.00;1.48;;;8.10;99.90;;;;;;4879578;29;20415;-85
2021/03/27 10:03:31;;;;;;;1.58;1.48;;;8.00;99.90;;;;;;4870759;29;20499;-81
2021/03/27 10:06:12;;;;;;;1.73;1.63;;;7.90;99.90;;;;;;4877898;29;20482;-83
2021/03/27 10:08:45;;;;;;;1.35;1.33;;;7.80;99.90;;;;;;4860633;29;20416;-81
2021/03/27 10:11:26;;;;;;;1.08;1.08;;;8.00;99.90;;;;;;4881022;29;20935;-82
2021/03/27 10:14:16;;;;;;;1.50;1.40;;;8.00;99.90;;;;;;4852089;29;20408;-81
2021/03/27 10:16:45;;;;;;;1.10;1.10;;;7.80;99.90;;;;;;4851566;29;20408;-83
2021/03/27 10:19:17;;;;;;;1.35;1.25;;;7.80;99.90;;;;;;4872325;29;20509;-82
2021/03/27 10:22:06;;;;;;;1.70;1.30;;;7.80;99.90;;;;;;4878679;29;20438;-80
2021/03/27 10:24:46;;;;;;;1.77;1.10;;;7.80;99.90;;;;;;4862459;29;20451;-81
2021/03/27 10:27:35;;;;;;;1.50;1.20;;;7.70;99.90;;;;;;4848975;29;20424;-81
2021/03/27 10:30:05;;;;;;;1.20;1.10;;;7.70;99.90;;;;;;4886311;29;20538;-82
2021/03/27 10:32:30;;;;;;;1.95;1.77;;;7.80;99.90;;;;;;4873216;29;20420;-80
2021/03/27 10:35:18;;;;;;;1.40;1.30;;;7.80;99.90;;;;;;4872286;29;20415;-80
2021/03/27 10:37:46;;;;;;;1.10;1.10;;;7.90;99.90;;;;;;4875658;29;20419;-81
2021/03/27 10:40:33;;;;;;;1.08;1.08;;;8.00;99.90;;;;;;4852539;29;20443;-81
2021/03/27 10:43:11;;;;;;;1.13;1.13;;;8.10;99.90;;;;;;4871659;29;20470;-78
2021/03/27 10:46:08;;;;;;;1.40;1.30;;;8.20;99.90;;;;;;4875861;29;20425;-81
2021/03/27 10:48:56;;;;;;;1.50;1.40;;;8.30;99.90;;;;;;4894981;29;20466;-80
2021/03/27 10:51:40;;;;;;;1.25;1.25;;;8.60;99.90;;;;;;4864482;29;20409;-79
2021/03/27 10:54:31;;;;;;;1.80;1.70;;;8.80;99.90;;;;;;4879786;29;20402;-81
2021/03/27 10:57:44;;;;;;;1.55;1.45;;;8.90;99.90;;;;;;4861226;29;20392;-79
2021/03/27 11:00:22;;;;;;;4.53;1.80;;;9.00;99.90;;;;;;4850691;29;20423;-84
2021/03/27 11:03:11;;;;;;;1.40;1.33;;;9.30;99.90;;;;;;4893176;29;20407;-80
2021/03/27 11:05:55;;;;;;;1.92;1.60;;;9.60;99.90;;;;;;4878016;29;20418;-80
2021/03/27 11:08:30;;;;;;;2.60;1.50;;;9.50;99.90;;;;;;4845516;29;20412;-79
2021/03/27 11:11:10;;;;;;;1.67;1.57;;;9.60;99.90;;;;;;4871820;29;20425;-81
2021/03/27 11:13:57;;;;;;;1.60;1.50;;;9.60;99.90;;;;;;4860769;29;20417;-89
2021/03/27 11:16:33;;;;;;;2.63;1.90;;;10.10;99.90;;;;;;4868896;29;20418;-79
2021/03/27 11:19:33;;;;;;;1.92;1.63;;;10.60;99.90;;;;;;4873300;29;20545;-77
2021/03/27 11:22:11;;;;;;;1.43;1.33;;;10.70;99.90;;;;;;4862360;29;20483;-78
2021/03/27 11:24:41;;;;;;;1.85;1.75;;;10.40;99.90;;;;;;4861443;29;20431;-80
2021/03/27 11:27:35;;;;;;;1.38;1.27;;;10.10;99.90;;;;;;4868846;29;20526;-78
2021/03/27 11:30:19;;;;;;;3.40;1.20;;;10.20;99.90;;;;;;4872969;29;20443;-79
2021/03/27 11:32:51;;;;;;;1.30;1.20;;;10.20;99.90;;;;;;4859556;29;20413;-81
2021/03/27 11:35:34;;;;;;;1.38;1.30;;;10.10;99.90;;;;;;4841919;29;20584;-79
2021/03/27 11:38:27;;;;;;;1.30;1.20;;;10.30;99.90;;;;;;4843091;29;20456;-79
2021/03/27 11:41:11;;;;;;;1.20;1.10;;;10.40;99.90;;;;;;4886051;29;20487;-79
2021/03/27 11:43:48;;;;;;;1.92;1.52;;;10.50;99.90;;;;;;4867674;29;20473;-82
2021/03/27 11:46:18;;;;;;;1.10;1.10;;;11.00;99.90;;;;;;4858934;29;20446;-80
2021/03/27 11:48:47;;;;;;;1.25;1.15;;;11.10;99.90;;;;;;4865114;29;20432;-82
2021/03/27 11:51:16;;;;;;;1.20;1.20;;;11.10;99.90;;;;;;4864999;29;20437;-78
2021/03/27 11:54:00;;;;;;;0.90;0.90;;;11.20;99.90;;;;;;4860169;29;20497;-79
2021/03/27 11:56:45;;;;;;;1.02;1.02;;;11.40;99.90;;;;;;4876368;29;20428;-79
2021/03/27 12:02:34;;;;;;;0.95;0.95;;;11.80;99.90;;;;;;4875642;29;20856;-77
2021/03/27 12:05:24;;;;;;;1.40;1.30;;;12.10;99.90;;;;;;4859395;29;20928;-78
2021/03/27 12:08:02;;;;;;;1.23;1.20;;;12.10;99.90;;;;;;4879773;29;20446;-80
2021/03/27 12:10:29;;;;;;;1.17;1.17;;;12.10;99.90;;;;;;4866797;29;20403;-78
2021/03/27 12:13:00;;;;;;;1.60;1.50;;;12.40;99.90;;;;;;4867337;29;21187;-79
2021/03/27 12:15:47;;;;;;;1.08;1.08;;;12.50;99.90;;;;;;4883494;29;20412;-81
2021/03/27 12:18:20;;;;;;;1.23;1.23;;;12.50;99.90;;;;;;4887778;29;20456;-79
2021/03/27 12:21:05;;;;;;;1.20;1.20;;;12.40;99.90;;;;;;4881344;29;20430;-83
2021/03/27 12:23:44;;;;;;;1.47;1.37;;;11.90;99.90;;;;;;4880635;29;20408;-83
2021/03/27 12:26:29;;;;;;;2.03;1.30;;;12.10;99.90;;;;;;4851314;29;20451;-82
2021/03/27 12:29:05;;;;;;;1.15;1.15;;;12.70;99.90;;;;;;4876058;29;20496;-82
2021/03/27 12:31:45;;;;;;;1.50;1.40;;;13.00;99.90;;;;;;4866147;29;20412;-80
2021/03/27 12:34:39;;;;;;;1.40;1.20;;;12.80;99.90;;;;;;4863288;29;20439;-79
2021/03/27 12:37:14;;;;;;;1.27;1.20;;;12.80;99.90;;;;;;4863136;29;20424;-79
2021/03/27 12:39:44;;;;;;;1.45;1.35;;;13.00;99.90;;;;;;4878846;29;20413;-82
2021/03/27 12:42:20;;;;;;;1.50;1.20;;;13.20;99.90;;;;;;4874295;29;20448;-79
2021/03/27 12:44:54;;;;;;;1.10;1.10;;;13.10;99.90;;;;;;4883649;29;20412;-79
2021/03/27 12:47:26;;;;;;;0.98;0.98;;;12.80;98.90;;;;;;4866494;29;20469;-80
2021/03/27 12:50:07;;;;;;;1.00;1.00;;;12.80;95.00;;;;;;4879293;29;20466;-80
2021/03/27 12:53:10;;;;;;;1.00;1.00;;;13.00;96.70;;;;;;4870773;29;20429;-79
2021/03/27 12:55:38;;;;;;;1.20;1.10;;;13.00;96.60;;;;;;4853988;29;20607;-79
2021/03/27 12:58:05;;;;;;;1.00;1.00;;;13.10;96.20;;;;;;4865380;29;20436;-80
2021/03/27 13:00:43;;;;;;;1.45;1.20;;;13.10;94.20;;;;;;4880360;29;20537;-80
2021/03/27 13:03:31;;;;;;;1.42;1.00;;;13.00;95.40;;;;;;4892217;29;20418;-86
2021/03/27 13:06:30;;;;;;;0.90;0.90;;;13.00;92.60;;;;;;4880898;29;20459;-79
2021/03/27 13:09:11;;;;;;;1.10;1.00;;;12.90;92.00;;;;;;4885474;29;20424;-85
2021/03/27 13:11:46;;;;;;;1.10;1.10;;;13.20;95.20;;;;;;4878806;29;20409;-79
2021/03/27 13:14:48;;;;;;;2.60;1.25;;;13.40;94.10;;;;;;4891837;29;20491;-79
2021/03/27 13:17:36;;;;;;;1.00;1.00;;;13.70;94.70;;;;;;4872085;29;20498;-80
2021/03/27 13:20:31;;;;;;;1.20;1.10;;;13.90;93.30;;;;;;4856862;29;20438;-79
2021/03/27 13:23:21;;;;;;;0.90;0.90;;;13.90;91.80;;;;;;4869672;29;20464;-80
2021/03/27 13:25:51;;;;;;;1.50;1.20;;;13.50;92.10;;;;;;4892139;29;20431;-81
2021/03/27 13:28:33;;;;;;;1.38;1.27;;;12.70;92.50;;;;;;4861094;29;20411;-79
2021/03/27 13:31:20;;;;;;;1.33;1.20;;;12.30;93.60;;;;;;4877517;29;20413;-80
2021/03/27 13:33:54;;;;;;;1.63;1.30;;;12.10;95.10;;;;;;4861775;29;20485;-81
2021/03/27 13:36:34;;;;;;;1.00;1.00;;;12.00;95.40;;;;;;4876141;29;20445;-85
2021/03/27 13:39:16;;;;;;;1.13;1.13;;;12.10;95.90;;;;;;4869369;29;20470;-80
2021/03/27 13:42:00;;;;;;;0.90;0.90;;;12.50;94.80;;;;;;4874591;29;20828;-79
2021/03/27 13:44:42;;;;;;;1.00;0.90;;;12.60;94.00;;;;;;4879199;29;20447;-82
2021/03/27 13:47:16;;;;;;;0.95;0.88;;;12.70;92.10;;;;;;4860787;29;20423;-82
2021/03/27 13:49:47;;;;;;;1.75;1.00;;;12.50;92.20;;;;;;4858351;29;20904;-79
2021/03/27 13:52:26;;;;;;;0.88;0.88;;;12.60;93.70;;;;;;4849926;29;21145;-79
2021/03/27 13:55:14;;;;;;;0.90;0.90;;;13.00;90.70;;;;;;4877368;29;20488;-84
2021/03/27 13:57:41;;;;;;;1.67;1.00;;;13.20;91.40;;;;;;4867008;29;20488;-86
2021/03/27 14:00:17;;;;;;;0.93;0.90;;;12.80;90.00;;;;;;4866379;29;20451;-79
2021/03/27 14:02:46;;;;;;;1.00;1.00;;;12.40;91.80;;;;;;4861903;29;20492;-83
2021/03/27 14:05:18;;;;;;;2.00;1.10;;;12.20;92.20;;;;;;4859737;29;20969;-82
2021/03/27 14:07:48;;;;;;;1.20;1.10;;;12.10;91.40;;;;;;4860884;29;20406;-81
2021/03/27 14:10:53;;;;;;;0.83;0.73;;;11.80;90.40;;;;;;4865082;29;20414;-84
2021/03/27 14:13:23;;;;;;;0.60;0.60;;;11.60;92.60;;;;;;4875145;29;20437;-83
2021/03/27 14:15:55;;;;;;;0.90;0.90;;;11.30;93.10;;;;;;4879613;29;21902;-78